»·PEaware :: N3023K KLAX-KSAN

N3023K :: KLAX-KSAN

FLIGHT INFORMATION

Flight Status: Arrived
Operator: Privately registered:
United States
More flights under this callsign
Pilot: Christopher B. (19444)
Aircraft: Unknown
(P28U)
More flights by this aircraft type
Origin: KLAX Los Angeles Intl
United States
Destination: KSAN San Diego Intl-Lindbergh
United States
More flights between these airports :: More routes between these airports
Route: +
File this flight plan on PilotEdge
Remarks: CAT11
Altitude:
(Current/Filed)
5,500ft
Speed:
(Current/Filed)
0kts
Departed: 04-Jan-20 03:20 PM
Arrived: 04-Jan-20 04:12 PM
Distance/Time
Traveled:
95nm/0:51
Distance/Time
To Go:
Arrived

Flight Plot

Page will automatically refresh every two minutes.


Map Options




Map Legend


Flown Route
Filed Route
Departure Airport
Arrival Airport
Navaid (VOR, NDB)
Fix

Horizontal Profiles

Position Reports

Time Latitude Longitude Heading Altitude Ground
Speed
04-Jan-20 15:09 33.934148 -118.393716 83 108ft 0kts
04-Jan-20 15:10 33.934148 -118.393716 83 108ft 0kts
04-Jan-20 15:11 33.934148 -118.393716 83 108ft 0kts
04-Jan-20 15:12 33.934148 -118.393716 83 108ft 0kts
04-Jan-20 15:13 33.934600 -118.393465 358 108ft 7kts
04-Jan-20 15:14 33.935346 -118.390349 81 108ft 14kts
04-Jan-20 15:15 33.935848 -118.385553 81 108ft 14kts
04-Jan-20 15:16 33.936406 -118.382780 351 108ft 0kts
04-Jan-20 15:17 33.936406 -118.382780 351 108ft 0kts
04-Jan-20 15:18 33.937130 -118.383683 263 108ft 17kts
04-Jan-20 15:19 33.934950 -118.404485 263 511ft 63kts
04-Jan-20 15:20 33.933922 -118.429402 267 1187ft 93kts
04-Jan-20 15:21 33.933110 -118.461547 274 2047ft 95kts
04-Jan-20 15:22 33.932545 -118.493965 269 2804ft 98kts
04-Jan-20 15:23 33.919975 -118.523784 199 3036ft 124kts
04-Jan-20 15:24 33.885259 -118.505073 144 2968ft 147kts
04-Jan-20 15:25 33.855016 -118.473357 143 2972ft 146kts
04-Jan-20 15:26 33.823972 -118.440890 144 2946ft 150kts
04-Jan-20 15:27 33.802483 -118.397125 116 2973ft 154kts
04-Jan-20 15:28 33.784573 -118.350399 116 3044ft 155kts
04-Jan-20 15:29 33.766861 -118.304412 116 3500ft 145kts
04-Jan-20 15:30 33.750087 -118.261047 116 4082ft 143kts
04-Jan-20 15:31 33.729069 -118.221476 133 4634ft 139kts
04-Jan-20 15:32 33.702053 -118.188113 142 5119ft 138kts
04-Jan-20 15:33 33.672951 -118.156502 143 5381ft 147kts
04-Jan-20 15:34 33.643731 -118.125502 144 5293ft 145kts
04-Jan-20 15:35 33.613521 -118.093621 144 5343ft 141kts
04-Jan-20 15:36 33.585120 -118.063692 144 5527ft 141kts
04-Jan-20 15:37 33.555709 -118.032768 144 5674ft 142kts
04-Jan-20 15:38 33.525213 -118.000768 143 5474ft 150kts
04-Jan-20 15:39 33.496719 -117.964166 126 5291ft 153kts
04-Jan-20 15:40 33.474500 -117.922764 125 5327ft 148kts
04-Jan-20 15:41 33.452447 -117.881216 125 5386ft 149kts
04-Jan-20 15:42 33.430187 -117.839241 125 5430ft 150kts
04-Jan-20 15:43 33.407830 -117.797109 125 5498ft 150kts
04-Jan-20 15:44 33.385403 -117.754893 125 5523ft 150kts
04-Jan-20 15:45 33.363222 -117.712395 123 5521ft 151kts
04-Jan-20 15:46 33.339649 -117.671104 137 5481ft 151kts
04-Jan-20 15:47 33.309565 -117.636462 139 5490ft 150kts
04-Jan-20 15:48 33.274956 -117.610207 149 5444ft 151kts
04-Jan-20 15:49 33.240847 -117.582344 149 5509ft 146kts
04-Jan-20 15:50 33.207072 -117.555221 149 5501ft 147kts
04-Jan-20 15:51 33.173013 -117.527988 149 5501ft 147kts
04-Jan-20 15:52 33.144978 -117.492891 127 5504ft 149kts
04-Jan-20 15:53 33.120984 -117.452996 127 5514ft 148kts
04-Jan-20 15:54 33.097262 -117.413156 127 5516ft 148kts
04-Jan-20 15:55 33.073322 -117.373142 127 5514ft 148kts
04-Jan-20 15:56 33.045678 -117.339049 141 5492ft 147kts
04-Jan-20 15:57 33.016367 -117.307267 141 5476ft 146kts
04-Jan-20 15:58 32.986489 -117.275177 144 5248ft 145kts
04-Jan-20 15:59 32.950199 -117.261554 177 4703ft 136kts
04-Jan-20 16:00 32.912777 -117.257402 182 3989ft 135kts
04-Jan-20 16:01 32.876225 -117.258483 190 3162ft 133kts
04-Jan-20 16:02 32.841014 -117.248517 156 3112ft 139kts
04-Jan-20 16:03 32.810770 -117.219772 124 3337ft 142kts
04-Jan-20 16:04 32.797302 -117.175342 105 3200ft 142kts
04-Jan-20 16:05 32.782283 -117.132268 115 2709ft 138kts
04-Jan-20 16:06 32.764544 -117.094245 158 2171ft 130kts
04-Jan-20 16:07 32.734330 -117.104723 209 1428ft 106kts
04-Jan-20 16:08 32.720553 -117.129707 280 1099ft 82kts
04-Jan-20 16:09 32.724768 -117.153676 287 588ft 68kts
04-Jan-20 16:10 32.729789 -117.174142 290 205ft 64kts
04-Jan-20 16:11 32.733477 -117.189451 292 19ft 18kts
04-Jan-20 16:12 32.734851 -117.190512 72 19ft 0kts
04-Jan-20 16:13 32.734852 -117.190337 103 19ft 0kts
04-Jan-20 16:14 32.734852 -117.190337 104 19ft 0kts
04-Jan-20 16:15 32.734836 -117.190256 104 19ft 4kts
04-Jan-20 16:16 32.734013 -117.186761 105 18ft 13kts
04-Jan-20 16:17 32.732951 -117.182371 106 17ft 13kts
04-Jan-20 16:18 32.732794 -117.179704 41 17ft 0kts
04-Jan-20 16:19 32.733167 -117.179080 108 18ft 0kts

Navigation Log

Ident Type
Flight plan parsing failed, navigation log unavailable